Pleasant Valley, Iowa
Current Conditions -  °F | °C
As of 9:52 AM on Friday 31 Oct 2014 (Local Time) from KDVN Reporting Station
Clear Clear  
Wind Chill: 26°   Ceiling: Unl
Heat Index: 37°   Visibility: 10mi
Dew Point: 21°   Wind: 24mph
Humidity: 52%   Direction: 350°N
Pressure: 30.32"   Gusts: 30mph
Location:  41.57°N, 90.42°W
Report Text: KDVN 311452Z AUTO 35021G26KT 10SM CLR 03/M06 A3032 RMK AO2 PK WND 35029/1441 SLP272 T00281061 51017 TSNO
Loading
Personal Weather Stations






























Interactive Weather Map
Tropical Storm Tracking
New forecast layout! Learn more

10-Day Weather Forecast

Advertisements
Track Severe Weather on mobile